sensor_id;sensor_type;location;lat;lon;timestamp;P1;durP1;ratioP1;P2;durP2;ratioP2
29280;SDS011;25048;49.590;11.026;2023-06-22T00:02:23;11.38;;;6.58;;
29280;SDS011;25048;49.590;11.026;2023-06-22T00:04:51;8.00;;;6.08;;
29280;SDS011;25048;49.590;11.026;2023-06-22T00:07:18;9.50;;;6.50;;
29280;SDS011;25048;49.590;11.026;2023-06-22T00:09:46;7.80;;;6.20;;
29280;SDS011;25048;49.590;11.026;2023-06-22T00:12:14;8.73;;;6.78;;
29280;SDS011;25048;49.590;11.026;2023-06-22T00:14:41;14.80;;;7.22;;
29280;SDS011;25048;49.590;11.026;2023-06-22T00:17:09;8.30;;;6.45;;
29280;SDS011;25048;49.590;11.026;2023-06-22T00:19:36;10.30;;;7.25;;
29280;SDS011;25048;49.590;11.026;2023-06-22T00:22:05;9.88;;;6.25;;
29280;SDS011;25048;49.590;11.026;2023-06-22T00:24:33;8.15;;;6.12;;
29280;SDS011;25048;49.590;11.026;2023-06-22T00:27:00;9.78;;;6.45;;
29280;SDS011;25048;49.590;11.026;2023-06-22T00:29:28;8.65;;;6.20;;
29280;SDS011;25048;49.590;11.026;2023-06-22T00:31:56;9.40;;;6.55;;
29280;SDS011;25048;49.590;11.026;2023-06-22T00:34:23;8.15;;;6.62;;
29280;SDS011;25048;49.590;11.026;2023-06-22T00:36:51;8.15;;;6.22;;
29280;SDS011;25048;49.590;11.026;2023-06-22T00:39:18;11.95;;;7.62;;
29280;SDS011;25048;49.590;11.026;2023-06-22T00:41:46;9.23;;;6.62;;
29280;SDS011;25048;49.590;11.026;2023-06-22T00:44:13;8.53;;;6.37;;
29280;SDS011;25048;49.590;11.026;2023-06-22T00:46:41;8.95;;;6.65;;
29280;SDS011;25048;49.590;11.026;2023-06-22T00:49:08;11.88;;;7.78;;
29280;SDS011;25048;49.590;11.026;2023-06-22T00:51:37;11.10;;;7.12;;
29280;SDS011;25048;49.590;11.026;2023-06-22T00:54:05;9.03;;;6.58;;
29280;SDS011;25048;49.590;11.026;2023-06-22T00:56:32;10.43;;;8.00;;
29280;SDS011;25048;49.590;11.026;2023-06-22T00:59:02;15.40;;;6.50;;
29280;SDS011;25048;49.590;11.026;2023-06-22T01:01:29;10.75;;;6.75;;
29280;SDS011;25048;49.590;11.026;2023-06-22T01:03:57;8.55;;;6.58;;
29280;SDS011;25048;49.590;11.026;2023-06-22T01:06:26;10.45;;;7.83;;
29280;SDS011;25048;49.590;11.026;2023-06-22T01:09:02;9.90;;;7.10;;
29280;SDS011;25048;49.590;11.026;2023-06-22T01:11:41;10.05;;;6.95;;
29280;SDS011;25048;49.590;11.026;2023-06-22T01:14:11;8.40;;;6.97;;
29280;SDS011;25048;49.590;11.026;2023-06-22T01:16:40;9.78;;;7.28;;
29280;SDS011;25048;49.590;11.026;2023-06-22T01:21:54;10.28;;;7.30;;
29280;SDS011;25048;49.590;11.026;2023-06-22T01:24:28;8.40;;;6.53;;
29280;SDS011;25048;49.590;11.026;2023-06-22T01:27:18;8.48;;;6.80;;
29280;SDS011;25048;49.590;11.026;2023-06-22T01:30:00;9.45;;;6.83;;
29280;SDS011;25048;49.590;11.026;2023-06-22T01:32:31;9.78;;;7.20;;
29280;SDS011;25048;49.590;11.026;2023-06-22T01:35:01;8.43;;;6.90;;
29280;SDS011;25048;49.590;11.026;2023-06-22T01:37:32;11.45;;;6.70;;
29280;SDS011;25048;49.590;11.026;2023-06-22T01:40:02;10.55;;;6.70;;
29280;SDS011;25048;49.590;11.026;2023-06-22T01:42:32;9.63;;;7.17;;
29280;SDS011;25048;49.590;11.026;2023-06-22T01:45:00;12.10;;;7.10;;
29280;SDS011;25048;49.590;11.026;2023-06-22T01:47:28;10.28;;;7.92;;
29280;SDS011;25048;49.590;11.026;2023-06-22T01:49:56;9.53;;;7.05;;
29280;SDS011;25048;49.590;11.026;2023-06-22T01:52:24;9.30;;;7.37;;
29280;SDS011;25048;49.590;11.026;2023-06-22T01:54:51;9.43;;;6.83;;
29280;SDS011;25048;49.590;11.026;2023-06-22T01:57:19;8.28;;;6.53;;
29280;SDS011;25048;49.590;11.026;2023-06-22T02:02:36;8.88;;;6.65;;
29280;SDS011;25048;49.590;11.026;2023-06-22T02:05:03;9.10;;;6.92;;
29280;SDS011;25048;49.590;11.026;2023-06-22T02:07:40;11.65;;;7.55;;
29280;SDS011;25048;49.590;11.026;2023-06-22T02:10:04;10.03;;;6.58;;
29280;SDS011;25048;49.590;11.026;2023-06-22T02:12:34;8.93;;;6.40;;
29280;SDS011;25048;49.590;11.026;2023-06-22T02:15:03;9.18;;;7.62;;
29280;SDS011;25048;49.590;11.026;2023-06-22T02:17:32;11.40;;;7.67;;
29280;SDS011;25048;49.590;11.026;2023-06-22T02:20:05;13.38;;;7.00;;
29280;SDS011;25048;49.590;11.026;2023-06-22T02:22:34;12.47;;;7.47;;
29280;SDS011;25048;49.590;11.026;2023-06-22T02:25:01;12.10;;;7.67;;
29280;SDS011;25048;49.590;11.026;2023-06-22T02:27:29;9.98;;;7.60;;
29280;SDS011;25048;49.590;11.026;2023-06-22T02:29:57;9.90;;;7.17;;
29280;SDS011;25048;49.590;11.026;2023-06-22T02:32:24;9.25;;;7.37;;
29280;SDS011;25048;49.590;11.026;2023-06-22T02:34:52;10.40;;;7.55;;
29280;SDS011;25048;49.590;11.026;2023-06-22T02:37:20;12.28;;;7.10;;
29280;SDS011;25048;49.590;11.026;2023-06-22T02:39:49;11.30;;;7.40;;
29280;SDS011;25048;49.590;11.026;2023-06-22T02:42:16;9.73;;;7.12;;
29280;SDS011;25048;49.590;11.026;2023-06-22T02:44:45;12.40;;;6.87;;
29280;SDS011;25048;49.590;11.026;2023-06-22T02:47:13;11.08;;;7.45;;
29280;SDS011;25048;49.590;11.026;2023-06-22T02:49:42;10.98;;;7.60;;
29280;SDS011;25048;49.590;11.026;2023-06-22T02:52:11;11.10;;;8.50;;
29280;SDS011;25048;49.590;11.026;2023-06-22T02:54:39;10.90;;;9.05;;
29280;SDS011;25048;49.590;11.026;2023-06-22T02:57:06;12.82;;;9.43;;
29280;SDS011;25048;49.590;11.026;2023-06-22T02:59:36;11.57;;;9.75;;
29280;SDS011;25048;49.590;11.026;2023-06-22T03:02:05;13.62;;;9.43;;
29280;SDS011;25048;49.590;11.026;2023-06-22T03:04:33;13.08;;;9.18;;
29280;SDS011;25048;49.590;11.026;2023-06-22T03:07:01;11.65;;;9.40;;
29280;SDS011;25048;49.590;11.026;2023-06-22T03:09:29;10.98;;;8.73;;
29280;SDS011;25048;49.590;11.026;2023-06-22T03:11:57;13.28;;;8.55;;
29280;SDS011;25048;49.590;11.026;2023-06-22T03:14:24;10.03;;;8.58;;
29280;SDS011;25048;49.590;11.026;2023-06-22T03:16:52;11.90;;;8.53;;
29280;SDS011;25048;49.590;11.026;2023-06-22T03:19:19;16.85;;;10.50;;
29280;SDS011;25048;49.590;11.026;2023-06-22T03:21:47;12.20;;;8.80;;
29280;SDS011;25048;49.590;11.026;2023-06-22T03:24:14;13.03;;;9.50;;
29280;SDS011;25048;49.590;11.026;2023-06-22T03:26:42;13.43;;;8.85;;
29280;SDS011;25048;49.590;11.026;2023-06-22T03:29:11;11.35;;;9.63;;
29280;SDS011;25048;49.590;11.026;2023-06-22T03:31:39;12.05;;;9.05;;
29280;SDS011;25048;49.590;11.026;2023-06-22T03:34:07;12.28;;;9.10;;
29280;SDS011;25048;49.590;11.026;2023-06-22T03:36:34;13.80;;;10.08;;
29280;SDS011;25048;49.590;11.026;2023-06-22T03:39:02;11.38;;;8.80;;
29280;SDS011;25048;49.590;11.026;2023-06-22T03:41:29;12.88;;;9.73;;
29280;SDS011;25048;49.590;11.026;2023-06-22T03:43:57;11.18;;;8.83;;
29280;SDS011;25048;49.590;11.026;2023-06-22T03:46:24;13.60;;;9.90;;
29280;SDS011;25048;49.590;11.026;2023-06-22T03:48:52;14.40;;;9.68;;
29280;SDS011;25048;49.590;11.026;2023-06-22T03:51:20;11.78;;;9.13;;
29280;SDS011;25048;49.590;11.026;2023-06-22T03:53:47;17.42;;;9.88;;
29280;SDS011;25048;49.590;11.026;2023-06-22T03:56:15;12.07;;;9.53;;
29280;SDS011;25048;49.590;11.026;2023-06-22T03:58:44;13.10;;;9.30;;
29280;SDS011;25048;49.590;11.026;2023-06-22T04:01:11;14.80;;;10.10;;
29280;SDS011;25048;49.590;11.026;2023-06-22T04:03:40;18.20;;;10.70;;
29280;SDS011;25048;49.590;11.026;2023-06-22T04:06:08;15.00;;;9.93;;
29280;SDS011;25048;49.590;11.026;2023-06-22T04:08:36;15.35;;;11.05;;
29280;SDS011;25048;49.590;11.026;2023-06-22T04:11:03;12.43;;;9.93;;
29280;SDS011;25048;49.590;11.026;2023-06-22T04:13:31;16.80;;;10.25;;
29280;SDS011;25048;49.590;11.026;2023-06-22T04:15:58;13.35;;;10.60;;
29280;SDS011;25048;49.590;11.026;2023-06-22T04:18:27;14.73;;;10.50;;
29280;SDS011;25048;49.590;11.026;2023-06-22T04:20:54;11.48;;;9.55;;
29280;SDS011;25048;49.590;11.026;2023-06-22T04:23:22;13.15;;;9.53;;
29280;SDS011;25048;49.590;11.026;2023-06-22T04:25:49;13.83;;;9.38;;
29280;SDS011;25048;49.590;11.026;2023-06-22T04:28:17;13.13;;;10.30;;
29280;SDS011;25048;49.590;11.026;2023-06-22T04:30:44;11.93;;;8.85;;
29280;SDS011;25048;49.590;11.026;2023-06-22T04:33:15;12.18;;;9.75;;
29280;SDS011;25048;49.590;11.026;2023-06-22T04:35:46;12.45;;;9.60;;
29280;SDS011;25048;49.590;11.026;2023-06-22T04:38:13;14.10;;;8.85;;
29280;SDS011;25048;49.590;11.026;2023-06-22T04:40:41;12.80;;;8.23;;
29280;SDS011;25048;49.590;11.026;2023-06-22T04:43:08;9.95;;;8.20;;
29280;SDS011;25048;49.590;11.026;2023-06-22T04:45:36;10.10;;;7.75;;
29280;SDS011;25048;49.590;11.026;2023-06-22T04:48:06;13.38;;;8.68;;
29280;SDS011;25048;49.590;11.026;2023-06-22T04:50:36;11.80;;;7.65;;
29280;SDS011;25048;49.590;11.026;2023-06-22T04:53:04;12.20;;;8.23;;
29280;SDS011;25048;49.590;11.026;2023-06-22T04:55:33;9.00;;;7.65;;
29280;SDS011;25048;49.590;11.026;2023-06-22T04:58:02;11.93;;;8.03;;
29280;SDS011;25048;49.590;11.026;2023-06-22T05:00:31;10.25;;;7.80;;
29280;SDS011;25048;49.590;11.026;2023-06-22T05:03:00;13.53;;;9.63;;
29280;SDS011;25048;49.590;11.026;2023-06-22T05:05:29;10.55;;;8.15;;
29280;SDS011;25048;49.590;11.026;2023-06-22T05:07:57;11.15;;;7.85;;
29280;SDS011;25048;49.590;11.026;2023-06-22T05:10:27;10.95;;;8.10;;
29280;SDS011;25048;49.590;11.026;2023-06-22T05:12:55;20.95;;;8.48;;
29280;SDS011;25048;49.590;11.026;2023-06-22T05:15:22;12.75;;;8.50;;
29280;SDS011;25048;49.590;11.026;2023-06-22T05:17:51;12.58;;;8.88;;
29280;SDS011;25048;49.590;11.026;2023-06-22T05:20:19;12.07;;;7.90;;
29280;SDS011;25048;49.590;11.026;2023-06-22T05:22:47;11.60;;;8.28;;
29280;SDS011;25048;49.590;11.026;2023-06-22T05:25:15;13.65;;;8.23;;
29280;SDS011;25048;49.590;11.026;2023-06-22T05:27:42;10.93;;;8.15;;
29280;SDS011;25048;49.590;11.026;2023-06-22T05:30:10;13.90;;;7.92;;
29280;SDS011;25048;49.590;11.026;2023-06-22T05:32:38;10.30;;;7.08;;
29280;SDS011;25048;49.590;11.026;2023-06-22T05:35:05;10.50;;;7.47;;
29280;SDS011;25048;49.590;11.026;2023-06-22T05:37:33;10.40;;;7.35;;
29280;SDS011;25048;49.590;11.026;2023-06-22T05:40:00;11.78;;;6.90;;
29280;SDS011;25048;49.590;11.026;2023-06-22T05:42:28;10.53;;;7.35;;
29280;SDS011;25048;49.590;11.026;2023-06-22T05:44:55;10.85;;;7.17;;
29280;SDS011;25048;49.590;11.026;2023-06-22T05:47:24;8.43;;;6.53;;
29280;SDS011;25048;49.590;11.026;2023-06-22T05:49:52;9.30;;;6.67;;
29280;SDS011;25048;49.590;11.026;2023-06-22T05:52:19;10.30;;;6.47;;
29280;SDS011;25048;49.590;11.026;2023-06-22T05:54:47;11.88;;;6.58;;
29280;SDS011;25048;49.590;11.026;2023-06-22T05:57:14;9.08;;;6.37;;
29280;SDS011;25048;49.590;11.026;2023-06-22T05:59:42;9.18;;;6.20;;
29280;SDS011;25048;49.590;11.026;2023-06-22T06:02:09;8.58;;;6.33;;
29280;SDS011;25048;49.590;11.026;2023-06-22T06:04:37;8.18;;;6.03;;
29280;SDS011;25048;49.590;11.026;2023-06-22T06:07:04;9.03;;;6.55;;
29280;SDS011;25048;49.590;11.026;2023-06-22T06:09:32;13.00;;;6.30;;
29280;SDS011;25048;49.590;11.026;2023-06-22T06:11:59;7.97;;;5.65;;
29280;SDS011;25048;49.590;11.026;2023-06-22T06:14:28;10.85;;;6.25;;
29280;SDS011;25048;49.590;11.026;2023-06-22T06:16:56;6.80;;;5.62;;
29280;SDS011;25048;49.590;11.026;2023-06-22T06:19:23;8.13;;;5.72;;
29280;SDS011;25048;49.590;11.026;2023-06-22T06:21:51;8.25;;;5.90;;
29280;SDS011;25048;49.590;11.026;2023-06-22T06:24:18;8.63;;;5.10;;
29280;SDS011;25048;49.590;11.026;2023-06-22T06:26:46;7.30;;;5.90;;
29280;SDS011;25048;49.590;11.026;2023-06-22T06:29:14;8.75;;;5.65;;
29280;SDS011;25048;49.590;11.026;2023-06-22T06:31:42;8.30;;;5.62;;
29280;SDS011;25048;49.590;11.026;2023-06-22T06:34:09;7.80;;;5.55;;
29280;SDS011;25048;49.590;11.026;2023-06-22T06:36:37;9.03;;;6.50;;
29280;SDS011;25048;49.590;11.026;2023-06-22T06:39:05;8.68;;;6.25;;
29280;SDS011;25048;49.590;11.026;2023-06-22T06:41:32;6.58;;;5.55;;
29280;SDS011;25048;49.590;11.026;2023-06-22T06:44:00;8.10;;;5.95;;
29280;SDS011;25048;49.590;11.026;2023-06-22T06:46:27;10.10;;;6.25;;
29280;SDS011;25048;49.590;11.026;2023-06-22T06:48:55;8.53;;;6.10;;
29280;SDS011;25048;49.590;11.026;2023-06-22T06:51:22;9.25;;;5.97;;
29280;SDS011;25048;49.590;11.026;2023-06-22T06:53:50;12.05;;;5.72;;
29280;SDS011;25048;49.590;11.026;2023-06-22T06:56:17;9.50;;;5.90;;
29280;SDS011;25048;49.590;11.026;2023-06-22T06:58:45;10.03;;;6.45;;
29280;SDS011;25048;49.590;11.026;2023-06-22T07:01:12;8.40;;;5.65;;
29280;SDS011;25048;49.590;11.026;2023-06-22T07:03:40;7.78;;;5.95;;
29280;SDS011;25048;49.590;11.026;2023-06-22T07:06:08;7.65;;;5.50;;
29280;SDS011;25048;49.590;11.026;2023-06-22T07:08:36;8.85;;;5.67;;
29280;SDS011;25048;49.590;11.026;2023-06-22T07:11:05;7.87;;;6.08;;
29280;SDS011;25048;49.590;11.026;2023-06-22T07:13:32;13.25;;;6.28;;
29280;SDS011;25048;49.590;11.026;2023-06-22T07:16:00;14.07;;;6.12;;
29280;SDS011;25048;49.590;11.026;2023-06-22T07:18:27;6.90;;;5.55;;
29280;SDS011;25048;49.590;11.026;2023-06-22T07:20:56;6.17;;;5.58;;
29280;SDS011;25048;49.590;11.026;2023-06-22T07:23:24;6.05;;;4.95;;
29280;SDS011;25048;49.590;11.026;2023-06-22T07:25:51;8.18;;;5.37;;
29280;SDS011;25048;49.590;11.026;2023-06-22T07:28:19;5.70;;;4.72;;
29280;SDS011;25048;49.590;11.026;2023-06-22T07:30:46;7.40;;;5.50;;
29280;SDS011;25048;49.590;11.026;2023-06-22T07:33:14;8.40;;;5.08;;
29280;SDS011;25048;49.590;11.026;2023-06-22T07:35:43;9.68;;;5.10;;
29280;SDS011;25048;49.590;11.026;2023-06-22T07:38:10;7.45;;;5.10;;
29280;SDS011;25048;49.590;11.026;2023-06-22T07:40:38;7.62;;;5.53;;
29280;SDS011;25048;49.590;11.026;2023-06-22T07:43:07;8.75;;;5.28;;
29280;SDS011;25048;49.590;11.026;2023-06-22T07:45:34;8.63;;;5.17;;
29280;SDS011;25048;49.590;11.026;2023-06-22T07:48:02;6.12;;;5.17;;
29280;SDS011;25048;49.590;11.026;2023-06-22T07:50:29;10.43;;;5.00;;
29280;SDS011;25048;49.590;11.026;2023-06-22T07:52:57;6.90;;;5.17;;
29280;SDS011;25048;49.590;11.026;2023-06-22T07:55:24;7.55;;;5.05;;
29280;SDS011;25048;49.590;11.026;2023-06-22T07:57:52;9.45;;;5.00;;
29280;SDS011;25048;49.590;11.026;2023-06-22T08:00:19;8.15;;;5.15;;
29280;SDS011;25048;49.590;11.026;2023-06-22T08:02:47;5.60;;;4.60;;
29280;SDS011;25048;49.590;11.026;2023-06-22T08:05:15;6.50;;;5.20;;
29280;SDS011;25048;49.590;11.026;2023-06-22T08:07:43;9.30;;;4.83;;
29280;SDS011;25048;49.590;11.026;2023-06-22T08:10:11;6.50;;;4.55;;
29280;SDS011;25048;49.590;11.026;2023-06-22T08:12:42;9.43;;;4.80;;
29280;SDS011;25048;49.590;11.026;2023-06-22T08:15:09;6.62;;;4.78;;
29280;SDS011;25048;49.590;11.026;2023-06-22T08:17:37;5.17;;;4.22;;
29280;SDS011;25048;49.590;11.026;2023-06-22T08:20:06;5.67;;;4.35;;
29280;SDS011;25048;49.590;11.026;2023-06-22T08:22:38;7.45;;;4.28;;
29280;SDS011;25048;49.590;11.026;2023-06-22T08:25:06;5.97;;;4.40;;
29280;SDS011;25048;49.590;11.026;2023-06-22T08:27:35;6.53;;;4.80;;
29280;SDS011;25048;49.590;11.026;2023-06-22T08:30:03;5.40;;;4.47;;
29280;SDS011;25048;49.590;11.026;2023-06-22T08:32:32;4.70;;;3.90;;
29280;SDS011;25048;49.590;11.026;2023-06-22T08:34:59;9.03;;;4.33;;
29280;SDS011;25048;49.590;11.026;2023-06-22T08:37:27;7.08;;;4.75;;
29280;SDS011;25048;49.590;11.026;2023-06-22T08:39:59;6.37;;;4.72;;
29280;SDS011;25048;49.590;11.026;2023-06-22T08:42:30;6.17;;;4.33;;
29280;SDS011;25048;49.590;11.026;2023-06-22T08:44:57;9.33;;;4.53;;
29280;SDS011;25048;49.590;11.026;2023-06-22T08:47:27;8.23;;;4.42;;
29280;SDS011;25048;49.590;11.026;2023-06-22T08:49:54;7.85;;;4.70;;
29280;SDS011;25048;49.590;11.026;2023-06-22T08:52:22;8.28;;;3.85;;
29280;SDS011;25048;49.590;11.026;2023-06-22T08:54:50;4.40;;;4.00;;
29280;SDS011;25048;49.590;11.026;2023-06-22T08:57:18;9.53;;;4.53;;
29280;SDS011;25048;49.590;11.026;2023-06-22T08:59:46;9.40;;;5.08;;
29280;SDS011;25048;49.590;11.026;2023-06-22T09:02:13;5.33;;;4.35;;
29280;SDS011;25048;49.590;11.026;2023-06-22T09:04:42;6.80;;;4.30;;
29280;SDS011;25048;49.590;11.026;2023-06-22T09:07:10;9.53;;;4.28;;
29280;SDS011;25048;49.590;11.026;2023-06-22T09:09:37;7.97;;;3.80;;
29280;SDS011;25048;49.590;11.026;2023-06-22T09:12:05;7.35;;;4.08;;
29280;SDS011;25048;49.590;11.026;2023-06-22T09:14:33;6.67;;;4.22;;
29280;SDS011;25048;49.590;11.026;2023-06-22T09:17:01;9.55;;;4.67;;
29280;SDS011;25048;49.590;11.026;2023-06-22T09:19:28;16.32;;;4.55;;
29280;SDS011;25048;49.590;11.026;2023-06-22T09:21:56;6.03;;;4.03;;
29280;SDS011;25048;49.590;11.026;2023-06-22T09:24:23;5.83;;;3.83;;
29280;SDS011;25048;49.590;11.026;2023-06-22T09:26:51;7.65;;;5.05;;
29280;SDS011;25048;49.590;11.026;2023-06-22T09:29:18;6.22;;;4.53;;
29280;SDS011;25048;49.590;11.026;2023-06-22T09:31:46;8.60;;;4.70;;
29280;SDS011;25048;49.590;11.026;2023-06-22T09:34:13;9.25;;;4.15;;
29280;SDS011;25048;49.590;11.026;2023-06-22T09:36:41;6.67;;;4.30;;
29280;SDS011;25048;49.590;11.026;2023-06-22T09:39:08;6.40;;;4.50;;
29280;SDS011;25048;49.590;11.026;2023-06-22T09:41:36;8.93;;;4.37;;
29280;SDS011;25048;49.590;11.026;2023-06-22T09:44:03;7.85;;;4.40;;
29280;SDS011;25048;49.590;11.026;2023-06-22T09:46:31;9.20;;;4.75;;
29280;SDS011;25048;49.590;11.026;2023-06-22T09:48:58;8.03;;;4.30;;
29280;SDS011;25048;49.590;11.026;2023-06-22T09:51:26;4.40;;;4.00;;
29280;SDS011;25048;49.590;11.026;2023-06-22T09:53:53;6.45;;;4.17;;
29280;SDS011;25048;49.590;11.026;2023-06-22T09:56:21;8.83;;;4.12;;
29280;SDS011;25048;49.590;11.026;2023-06-22T09:58:48;8.13;;;4.97;;
29280;SDS011;25048;49.590;11.026;2023-06-22T10:01:18;6.40;;;4.47;;
29280;SDS011;25048;49.590;11.026;2023-06-22T10:03:46;7.25;;;4.62;;
29280;SDS011;25048;49.590;11.026;2023-06-22T10:06:14;7.62;;;4.65;;
29280;SDS011;25048;49.590;11.026;2023-06-22T10:08:41;5.87;;;4.42;;
29280;SDS011;25048;49.590;11.026;2023-06-22T10:11:09;6.33;;;3.95;;
29280;SDS011;25048;49.590;11.026;2023-06-22T10:13:36;6.20;;;4.70;;
29280;SDS011;25048;49.590;11.026;2023-06-22T10:16:04;5.78;;;3.62;;
29280;SDS011;25048;49.590;11.026;2023-06-22T10:18:31;5.87;;;4.17;;
29280;SDS011;25048;49.590;11.026;2023-06-22T10:20:59;7.00;;;4.15;;
29280;SDS011;25048;49.590;11.026;2023-06-22T10:23:27;6.83;;;4.55;;
29280;SDS011;25048;49.590;11.026;2023-06-22T10:25:54;11.33;;;4.65;;
29280;SDS011;25048;49.590;11.026;2023-06-22T10:28:23;11.28;;;4.15;;
29280;SDS011;25048;49.590;11.026;2023-06-22T10:30:51;7.25;;;3.87;;
29280;SDS011;25048;49.590;11.026;2023-06-22T10:33:18;12.85;;;4.85;;
29280;SDS011;25048;49.590;11.026;2023-06-22T10:35:46;7.97;;;4.75;;
29280;SDS011;25048;49.590;11.026;2023-06-22T10:38:13;8.80;;;4.40;;
29280;SDS011;25048;49.590;11.026;2023-06-22T10:40:42;13.90;;;4.58;;
29280;SDS011;25048;49.590;11.026;2023-06-22T10:43:09;5.75;;;4.42;;
29280;SDS011;25048;49.590;11.026;2023-06-22T10:45:37;4.83;;;4.20;;
29280;SDS011;25048;49.590;11.026;2023-06-22T10:48:04;9.78;;;4.37;;
29280;SDS011;25048;49.590;11.026;2023-06-22T10:50:32;11.38;;;5.05;;
29280;SDS011;25048;49.590;11.026;2023-06-22T10:52:59;7.72;;;4.37;;
29280;SDS011;25048;49.590;11.026;2023-06-22T10:55:27;7.67;;;4.60;;
29280;SDS011;25048;49.590;11.026;2023-06-22T10:57:54;6.75;;;5.08;;
29280;SDS011;25048;49.590;11.026;2023-06-22T11:00:22;7.67;;;4.60;;
29280;SDS011;25048;49.590;11.026;2023-06-22T11:02:49;10.88;;;4.70;;
29280;SDS011;25048;49.590;11.026;2023-06-22T11:05:17;6.03;;;4.58;;
29280;SDS011;25048;49.590;11.026;2023-06-22T11:07:45;9.08;;;5.03;;
29280;SDS011;25048;49.590;11.026;2023-06-22T11:10:14;6.70;;;4.45;;
29280;SDS011;25048;49.590;11.026;2023-06-22T11:12:41;6.75;;;4.22;;
29280;SDS011;25048;49.590;11.026;2023-06-22T11:15:09;8.43;;;4.03;;
29280;SDS011;25048;49.590;11.026;2023-06-22T11:17:36;9.98;;;5.60;;
29280;SDS011;25048;49.590;11.026;2023-06-22T11:20:04;6.53;;;4.65;;
29280;SDS011;25048;49.590;11.026;2023-06-22T11:22:40;9.60;;;4.72;;
29280;SDS011;25048;49.590;11.026;2023-06-22T11:25:08;6.70;;;4.33;;
29280;SDS011;25048;49.590;11.026;2023-06-22T11:27:37;9.65;;;4.62;;
29280;SDS011;25048;49.590;11.026;2023-06-22T11:30:05;8.18;;;3.83;;
29280;SDS011;25048;49.590;11.026;2023-06-22T11:32:33;7.97;;;5.33;;
29280;SDS011;25048;49.590;11.026;2023-06-22T11:35:01;10.13;;;4.70;;
29280;SDS011;25048;49.590;11.026;2023-06-22T11:37:29;12.25;;;4.22;;
29280;SDS011;25048;49.590;11.026;2023-06-22T11:39:56;10.60;;;5.25;;
29280;SDS011;25048;49.590;11.026;2023-06-22T11:42:24;8.40;;;4.83;;
29280;SDS011;25048;49.590;11.026;2023-06-22T11:44:51;8.73;;;4.70;;
29280;SDS011;25048;49.590;11.026;2023-06-22T11:47:19;11.78;;;4.83;;
29280;SDS011;25048;49.590;11.026;2023-06-22T11:49:46;15.85;;;4.70;;
29280;SDS011;25048;49.590;11.026;2023-06-22T11:52:14;7.17;;;4.10;;
29280;SDS011;25048;49.590;11.026;2023-06-22T11:54:43;7.97;;;4.20;;
29280;SDS011;25048;49.590;11.026;2023-06-22T11:57:11;7.97;;;4.10;;
29280;SDS011;25048;49.590;11.026;2023-06-22T11:59:39;6.33;;;3.80;;
29280;SDS011;25048;49.590;11.026;2023-06-22T12:02:06;10.30;;;4.53;;
29280;SDS011;25048;49.590;11.026;2023-06-22T12:04:35;9.18;;;4.15;;
29280;SDS011;25048;49.590;11.026;2023-06-22T12:07:03;7.80;;;4.22;;
29280;SDS011;25048;49.590;11.026;2023-06-22T12:09:31;6.90;;;3.80;;
29280;SDS011;25048;49.590;11.026;2023-06-22T12:11:58;10.53;;;4.40;;
29280;SDS011;25048;49.590;11.026;2023-06-22T12:14:26;8.58;;;4.75;;
29280;SDS011;25048;49.590;11.026;2023-06-22T12:16:53;9.40;;;4.65;;
29280;SDS011;25048;49.590;11.026;2023-06-22T12:19:21;8.95;;;4.50;;
29280;SDS011;25048;49.590;11.026;2023-06-22T12:21:48;6.65;;;4.53;;
29280;SDS011;25048;49.590;11.026;2023-06-22T12:24:16;13.22;;;4.33;;
29280;SDS011;25048;49.590;11.026;2023-06-22T12:26:43;8.30;;;4.53;;
29280;SDS011;25048;49.590;11.026;2023-06-22T12:29:11;7.67;;;4.03;;
29280;SDS011;25048;49.590;11.026;2023-06-22T12:31:38;8.10;;;4.95;;
29280;SDS011;25048;49.590;11.026;2023-06-22T12:34:07;9.03;;;4.50;;
29280;SDS011;25048;49.590;11.026;2023-06-22T12:36:34;10.20;;;4.70;;
29280;SDS011;25048;49.590;11.026;2023-06-22T12:39:02;18.85;;;4.97;;
29280;SDS011;25048;49.590;11.026;2023-06-22T12:41:29;11.03;;;4.62;;
29280;SDS011;25048;49.590;11.026;2023-06-22T12:43:57;8.83;;;4.87;;
29280;SDS011;25048;49.590;11.026;2023-06-22T12:46:25;9.50;;;4.97;;
29280;SDS011;25048;49.590;11.026;2023-06-22T12:48:52;10.70;;;5.05;;
29280;SDS011;25048;49.590;11.026;2023-06-22T12:51:20;9.40;;;4.12;;
29280;SDS011;25048;49.590;11.026;2023-06-22T12:53:48;7.55;;;4.78;;
29280;SDS011;25048;49.590;11.026;2023-06-22T12:56:16;10.85;;;5.17;;
29280;SDS011;25048;49.590;11.026;2023-06-22T12:58:44;11.73;;;5.70;;
29280;SDS011;25048;49.590;11.026;2023-06-22T13:01:11;13.18;;;4.95;;
29280;SDS011;25048;49.590;11.026;2023-06-22T13:03:39;9.35;;;4.45;;
29280;SDS011;25048;49.590;11.026;2023-06-22T13:06:07;6.30;;;4.20;;
29280;SDS011;25048;49.590;11.026;2023-06-22T13:08:34;13.40;;;4.85;;
29280;SDS011;25048;49.590;11.026;2023-06-22T13:11:02;9.70;;;5.20;;
29280;SDS011;25048;49.590;11.026;2023-06-22T13:13:29;9.20;;;4.53;;
29280;SDS011;25048;49.590;11.026;2023-06-22T13:16:02;10.28;;;4.22;;
29280;SDS011;25048;49.590;11.026;2023-06-22T13:18:30;9.55;;;5.35;;
29280;SDS011;25048;49.590;11.026;2023-06-22T13:20:59;12.65;;;5.03;;
29280;SDS011;25048;49.590;11.026;2023-06-22T13:23:26;11.55;;;4.87;;
29280;SDS011;25048;49.590;11.026;2023-06-22T13:25:54;15.13;;;5.12;;
29280;SDS011;25048;49.590;11.026;2023-06-22T13:28:21;8.18;;;4.83;;
29280;SDS011;25048;49.590;11.026;2023-06-22T13:30:49;9.73;;;4.58;;
29280;SDS011;25048;49.590;11.026;2023-06-22T13:33:16;11.18;;;4.50;;
29280;SDS011;25048;49.590;11.026;2023-06-22T13:35:44;9.23;;;4.40;;
29280;SDS011;25048;49.590;11.026;2023-06-22T13:38:11;11.08;;;4.70;;
29280;SDS011;25048;49.590;11.026;2023-06-22T13:40:39;8.08;;;4.85;;
29280;SDS011;25048;49.590;11.026;2023-06-22T13:43:06;8.48;;;4.50;;
29280;SDS011;25048;49.590;11.026;2023-06-22T13:45:34;8.63;;;3.95;;
29280;SDS011;25048;49.590;11.026;2023-06-22T13:48:01;11.50;;;4.87;;
29280;SDS011;25048;49.590;11.026;2023-06-22T13:50:29;14.87;;;4.92;;
29280;SDS011;25048;49.590;11.026;2023-06-22T13:52:57;13.08;;;5.37;;
29280;SDS011;25048;49.590;11.026;2023-06-22T13:55:24;6.90;;;4.25;;
29280;SDS011;25048;49.590;11.026;2023-06-22T13:57:52;8.65;;;5.30;;
29280;SDS011;25048;49.590;11.026;2023-06-22T14:00:20;16.97;;;4.37;;
29280;SDS011;25048;49.590;11.026;2023-06-22T14:02:47;11.00;;;4.35;;
29280;SDS011;25048;49.590;11.026;2023-06-22T14:05:15;11.35;;;5.25;;
29280;SDS011;25048;49.590;11.026;2023-06-22T14:07:42;9.25;;;4.65;;
29280;SDS011;25048;49.590;11.026;2023-06-22T14:10:10;12.37;;;5.03;;
29280;SDS011;25048;49.590;11.026;2023-06-22T14:12:37;10.68;;;4.70;;
29280;SDS011;25048;49.590;11.026;2023-06-22T14:15:05;7.37;;;4.30;;
29280;SDS011;25048;49.590;11.026;2023-06-22T14:17:33;8.40;;;5.08;;
29280;SDS011;25048;49.590;11.026;2023-06-22T14:20:00;6.35;;;4.28;;
29280;SDS011;25048;49.590;11.026;2023-06-22T14:22:29;8.33;;;4.00;;
29280;SDS011;25048;49.590;11.026;2023-06-22T14:24:56;10.90;;;4.78;;
29280;SDS011;25048;49.590;11.026;2023-06-22T14:27:24;9.18;;;3.92;;
29280;SDS011;25048;49.590;11.026;2023-06-22T14:29:52;13.28;;;4.22;;
29280;SDS011;25048;49.590;11.026;2023-06-22T14:32:19;11.18;;;4.75;;
29280;SDS011;25048;49.590;11.026;2023-06-22T14:34:47;12.35;;;5.22;;
29280;SDS011;25048;49.590;11.026;2023-06-22T14:37:15;11.38;;;5.12;;
29280;SDS011;25048;49.590;11.026;2023-06-22T14:39:43;7.92;;;4.95;;